createdAt,value
2019-02-25T00:02:45.414Z,965.1
2019-02-25T00:05:51.276Z,965.2
2019-02-25T00:08:57.331Z,965.1
2019-02-25T00:12:03.347Z,965.2
2019-02-25T00:15:09.304Z,965.2
2019-02-25T00:18:15.258Z,965.1
2019-02-25T00:21:21.323Z,965.1
2019-02-25T00:24:27.280Z,965.1
2019-02-25T00:27:33.236Z,965.1
2019-02-25T00:30:39.197Z,965
2019-02-25T00:33:45.220Z,965
2019-02-25T00:36:51.221Z,964.9
2019-02-25T00:39:57.179Z,964.9
2019-02-25T00:43:03.345Z,965
2019-02-25T00:46:09.254Z,964.9
2019-02-25T00:49:15.279Z,964.9
2019-02-25T00:52:21.135Z,964.9
2019-02-25T00:55:27.296Z,964.9
2019-02-25T00:58:33.184Z,964.8
2019-02-25T01:01:39.045Z,964.8
2019-02-25T01:04:44.920Z,964.8
2019-02-25T01:07:50.924Z,964.8
2019-02-25T01:10:56.886Z,964.6
2019-02-25T01:14:02.867Z,964.7
2019-02-25T01:17:08.711Z,964.6
2019-02-25T01:20:14.583Z,964.6
2019-02-25T01:23:20.617Z,964.6
2019-02-25T01:26:29.289Z,964.7
2019-02-25T01:29:35.200Z,964.7
2019-02-25T01:32:41.876Z,964.6
2019-02-25T01:35:47.842Z,964.6
2019-02-25T01:38:53.803Z,964.5
2019-02-25T01:41:59.767Z,964.4
2019-02-25T01:45:05.718Z,964.5
2019-02-25T01:48:11.775Z,964.4
2019-02-25T01:51:17.658Z,964.4
2019-02-25T01:54:25.844Z,964.5
2019-02-25T01:57:31.724Z,964.5
2019-02-25T02:00:37.665Z,964.5
2019-02-25T02:03:43.615Z,964.4
2019-02-25T02:06:49.502Z,964.4
2019-02-25T02:09:55.546Z,964.4
2019-02-25T02:13:01.407Z,964.4
2019-02-25T02:16:16.980Z,964.4
2019-02-25T02:19:22.936Z,964.4
2019-02-25T02:22:28.822Z,964.4
2019-02-25T02:25:34.697Z,964.5
2019-02-25T02:28:40.718Z,964.6
2019-02-25T02:31:46.601Z,964.5
2019-02-25T02:34:52.638Z,964.5
2019-02-25T02:37:58.695Z,964.4
2019-02-25T02:41:04.669Z,964.3
2019-02-25T02:44:10.619Z,964.4
2019-02-25T02:47:16.506Z,964.4
2019-02-25T02:50:22.484Z,964.4
2019-02-25T02:53:28.497Z,964.4
2019-02-25T02:56:34.452Z,964.5
2019-02-25T02:59:40.422Z,964.6
2019-02-25T03:02:46.473Z,964.7
2019-02-25T03:05:52.432Z,964.7
2019-02-25T03:08:58.598Z,964.6
2019-02-25T03:12:04.572Z,964.6
2019-02-25T03:15:10.521Z,964.6
2019-02-25T03:18:16.535Z,964.6
2019-02-25T03:21:22.582Z,964.7
2019-02-25T03:24:28.604Z,964.7
2019-02-25T03:27:34.713Z,964.7
2019-02-25T03:30:40.644Z,964.7
2019-02-25T03:33:46.690Z,964.8
2019-02-25T03:36:52.768Z,964.8
2019-02-25T03:39:58.720Z,964.8
2019-02-25T03:43:04.926Z,964.8
2019-02-25T03:46:10.986Z,964.7
2019-02-25T03:49:16.860Z,964.7
2019-02-25T03:52:22.866Z,964.7
2019-02-25T03:55:28.945Z,964.7
2019-02-25T03:58:34.878Z,964.8
2019-02-25T04:01:40.811Z,964.7
2019-02-25T04:04:46.899Z,964.6
2019-02-25T04:07:52.786Z,964.7
2019-02-25T04:10:58.716Z,964.7
2019-02-25T04:14:04.735Z,964.7
2019-02-25T04:17:10.737Z,964.7
2019-02-25T04:20:16.796Z,964.7
2019-02-25T04:23:22.811Z,964.7
2019-02-25T04:26:28.685Z,964.7
2019-02-25T04:29:34.674Z,964.7
2019-02-25T04:32:40.733Z,964.7
2019-02-25T04:35:49.686Z,964.7
2019-02-25T04:38:55.625Z,964.6
2019-02-25T04:42:01.583Z,964.7
2019-02-25T04:45:07.787Z,964.7
2019-02-25T04:48:13.811Z,964.7
2019-02-25T04:51:19.772Z,964.6
2019-02-25T04:54:25.794Z,964.7
2019-02-25T04:57:31.913Z,964.7
2019-02-25T05:00:37.860Z,964.7
2019-02-25T05:03:43.747Z,964.8
2019-02-25T05:06:49.903Z,964.7
2019-02-25T05:09:55.843Z,964.7
2019-02-25T05:13:01.790Z,964.6
2019-02-25T05:16:07.771Z,964.7
2019-02-25T05:19:13.721Z,964.6
2019-02-25T05:22:19.698Z,964.7
2019-02-25T05:25:25.655Z,964.7
2019-02-25T05:28:31.624Z,964.7
2019-02-25T05:31:37.557Z,964.6
2019-02-25T05:34:43.509Z,964.6
2019-02-25T05:37:49.725Z,964.6
2019-02-25T05:40:55.734Z,964.5
2019-02-25T05:44:01.617Z,964.6
2019-02-25T05:47:10.320Z,964.6
2019-02-25T05:50:16.208Z,964.6
2019-02-25T05:53:22.156Z,964.6
2019-02-25T05:56:28.091Z,964.7
2019-02-25T05:59:33.979Z,964.7
2019-02-25T06:02:39.906Z,964.7
2019-02-25T06:05:45.872Z,964.7
2019-02-25T06:08:51.936Z,964.7
2019-02-25T06:11:57.994Z,964.6
2019-02-25T06:15:04.057Z,964.7
2019-02-25T06:18:12.743Z,964.8
2019-02-25T06:21:18.691Z,964.8
2019-02-25T06:24:27.049Z,964.8
2019-02-25T06:27:33.013Z,964.9
2019-02-25T06:30:38.895Z,964.8
2019-02-25T06:33:44.841Z,964.6
2019-02-25T06:36:52.940Z,964.6
2019-02-25T06:39:58.899Z,964.7
2019-02-25T06:43:05.268Z,964.7
2019-02-25T06:46:11.213Z,964.7
2019-02-25T06:49:18.613Z,964.7
2019-02-25T06:52:27.616Z,964.8
2019-02-25T06:55:33.623Z,964.9
2019-02-25T06:58:39.808Z,964.9
2019-02-25T07:01:45.672Z,965
2019-02-25T07:04:51.627Z,965
2019-02-25T07:07:57.768Z,964.9
2019-02-25T07:11:03.654Z,964.8
2019-02-25T07:14:09.528Z,964.8
2019-02-25T07:17:15.403Z,964.8
2019-02-25T07:20:21.442Z,964.9
2019-02-25T07:23:27.352Z,964.7
2019-02-25T07:26:33.352Z,964.6
2019-02-25T07:29:39.377Z,964.6
2019-02-25T07:32:45.396Z,964.5
2019-02-25T07:35:51.421Z,964.6
2019-02-25T07:38:57.458Z,964.7
2019-02-25T07:42:03.423Z,964.6
2019-02-25T07:45:09.427Z,964.6
2019-02-25T07:48:15.441Z,964.6
2019-02-25T07:51:21.320Z,964.7
2019-02-25T07:54:27.258Z,964.6
2019-02-25T07:57:33.233Z,964.5
2019-02-25T08:00:39.223Z,964.6
2019-02-25T08:03:45.136Z,964.7
2019-02-25T08:06:51.146Z,964.6
2019-02-25T08:09:57.071Z,964.5
2019-02-25T08:13:03.324Z,964.5
2019-02-25T08:16:09.446Z,964.6
2019-02-25T08:19:15.364Z,964.5
2019-02-25T08:22:23.417Z,964.5
2019-02-25T08:25:29.312Z,964.5
2019-02-25T08:28:37.280Z,964.6
2019-02-25T08:31:43.444Z,964.6
2019-02-25T08:34:49.770Z,964.5
2019-02-25T08:37:57.933Z,964.5
2019-02-25T08:41:04.094Z,964.6
2019-02-25T08:44:10.510Z,964.5
2019-02-25T08:47:16.462Z,964.5
2019-02-25T08:50:22.476Z,964.5
2019-02-25T08:53:30.479Z,964.5
2019-02-25T08:56:36.595Z,964.5
2019-02-25T08:59:42.601Z,964.5
2019-02-25T09:02:48.614Z,964.5
2019-02-25T09:05:54.677Z,964.5
2019-02-25T09:09:00.637Z,964.6
2019-02-25T09:12:06.510Z,964.7
2019-02-25T09:15:12.456Z,964.6
2019-02-25T09:18:18.462Z,964.6
2019-02-25T09:21:32.923Z,964.7
2019-02-25T09:24:40.744Z,964.7
2019-02-25T09:27:47.014Z,964.8
2019-02-25T09:30:53.284Z,964.7
2019-02-25T09:33:59.788Z,964.7
2019-02-25T09:37:05.706Z,964.7
2019-02-25T09:40:11.724Z,964.7
2019-02-25T09:43:20.882Z,964.8
2019-02-25T09:46:27.936Z,964.7
2019-02-25T09:49:34.047Z,964.7
2019-02-25T09:52:39.979Z,964.7
2019-02-25T09:55:46.371Z,964.6
2019-02-25T09:58:53.172Z,964.7
2019-02-25T10:01:59.213Z,964.8
2019-02-25T10:05:05.202Z,964.6
2019-02-25T10:08:11.185Z,964.6
2019-02-25T10:11:17.240Z,964.5
2019-02-25T10:14:23.257Z,964.4
2019-02-25T10:17:29.262Z,964.4
2019-02-25T10:20:35.223Z,964.4
2019-02-25T10:23:41.699Z,964.3
2019-02-25T10:26:47.591Z,964.3
2019-02-25T10:29:53.522Z,964.2
2019-02-25T10:33:01.476Z,964.2
2019-02-25T10:36:07.490Z,964.2
2019-02-25T10:39:19.772Z,964.2
2019-02-25T10:42:27.194Z,964.1
2019-02-25T10:45:45.295Z,964.1
2019-02-25T10:48:59.175Z,964.1
2019-02-25T10:52:18.511Z,964
2019-02-25T10:55:24.626Z,963.9
2019-02-25T10:58:35.974Z,963.9
2019-02-25T11:01:47.488Z,963.9
2019-02-25T11:04:57.795Z,963.9
2019-02-25T11:08:07.391Z,963.8
2019-02-25T11:11:25.251Z,963.9
2019-02-25T11:14:40.995Z,963.8
2019-02-25T11:17:53.888Z,963.8
2019-02-25T11:21:08.388Z,963.7
2019-02-25T11:24:22.723Z,963.6
2019-02-25T11:27:37.704Z,963.5
2019-02-25T11:30:51.884Z,963.4
2019-02-25T11:34:05.571Z,963.5
2019-02-25T11:37:19.021Z,963.5
2019-02-25T11:40:38.283Z,963.4
2019-02-25T11:43:52.780Z,963.3
2019-02-25T11:47:00.754Z,963.3
2019-02-25T11:50:06.766Z,963.3
2019-02-25T11:53:12.679Z,963.2
2019-02-25T11:56:18.679Z,963.3
2019-02-25T11:59:24.581Z,963.3
2019-02-25T12:02:32.549Z,963.4
2019-02-25T12:05:38.533Z,963.2
2019-02-25T12:08:46.529Z,963.2
2019-02-25T12:11:52.576Z,963.1
2019-02-25T12:14:58.480Z,963.1
2019-02-25T12:18:04.668Z,963.2
2019-02-25T12:21:10.769Z,963.2
2019-02-25T12:24:17.793Z,963.1
2019-02-25T12:27:23.806Z,963.1
2019-02-25T12:30:29.698Z,963
2019-02-25T12:33:38.447Z,963
2019-02-25T12:36:45.274Z,963
2019-02-25T12:39:51.293Z,963
2019-02-25T12:42:57.295Z,963
2019-02-25T12:46:03.256Z,963
2019-02-25T12:49:09.218Z,962.9
2019-02-25T12:52:15.149Z,962.9
2019-02-25T12:55:21.078Z,962.8
2019-02-25T12:58:27.098Z,962.7
2019-02-25T13:01:33.362Z,962.7
2019-02-25T13:04:42.143Z,962.7
2019-02-25T13:07:48.100Z,962.7
2019-02-25T13:10:53.977Z,962.7
2019-02-25T13:14:00.070Z,962.7
2019-02-25T13:17:05.956Z,962.6
2019-02-25T13:20:12.087Z,962.7
2019-02-25T13:23:17.961Z,962.6
2019-02-25T13:26:24.008Z,962.6
2019-02-25T13:29:41.753Z,962.6
2019-02-25T13:32:47.755Z,962.5
2019-02-25T13:35:53.871Z,962.5
2019-02-25T13:39:02.131Z,962.5
2019-02-25T13:42:08.316Z,962.4
2019-02-25T13:45:14.471Z,962.4
2019-02-25T13:48:20.678Z,962.4
2019-02-25T13:51:26.816Z,962.4
2019-02-25T13:54:32.958Z,962.5
2019-02-25T13:57:39.120Z,962.5
2019-02-25T14:00:45.301Z,962.5
2019-02-25T14:03:51.655Z,962.4
2019-02-25T14:06:57.718Z,962.4
2019-02-25T14:10:04.102Z,962.4
2019-02-25T14:13:10.219Z,962.4
2019-02-25T14:16:16.632Z,962.5
2019-02-25T14:19:23.618Z,962.4
2019-02-25T14:22:29.769Z,962.3
2019-02-25T14:25:42.288Z,962.3
2019-02-25T14:28:49.982Z,962.3
2019-02-25T14:31:57.194Z,962.2
2019-02-25T14:35:05.145Z,962.2
2019-02-25T14:38:20.469Z,962.1
2019-02-25T14:41:40.459Z,962.1
2019-02-25T14:44:49.917Z,962
2019-02-25T14:48:22.929Z,962
2019-02-25T14:51:39.603Z,962
2019-02-25T14:54:47.179Z,961.8
2019-02-25T14:57:59.861Z,961.9
2019-02-25T15:01:29.399Z,961.9
2019-02-25T15:04:41.764Z,961.9
2019-02-25T15:07:53.946Z,961.9
2019-02-25T15:11:06.979Z,961.9
2019-02-25T15:14:20.508Z,961.8
2019-02-25T15:17:26.775Z,961.8
2019-02-25T15:20:32.834Z,961.8
2019-02-25T15:23:38.946Z,961.8
2019-02-25T15:26:45.169Z,961.8
2019-02-25T15:29:52.061Z,961.8
2019-02-25T15:33:01.282Z,961.7
2019-02-25T15:36:07.345Z,961.8
2019-02-25T15:39:27.652Z,961.8
2019-02-25T15:42:41.590Z,961.8
2019-02-25T15:45:51.711Z,961.8
2019-02-25T15:48:58.223Z,961.9
2019-02-25T15:52:06.127Z,961.9
2019-02-25T15:55:27.669Z,962
2019-02-25T15:58:33.709Z,961.9
2019-02-25T16:01:39.948Z,961.9
2019-02-25T16:04:45.931Z,961.9
2019-02-25T16:07:57.593Z,961.9
2019-02-25T16:11:07.578Z,962
2019-02-25T16:14:27.637Z,962
2019-02-25T16:17:38.806Z,962
2019-02-25T16:20:47.577Z,962
2019-02-25T16:24:11.659Z,962
2019-02-25T16:27:27.971Z,962
2019-02-25T16:30:34.023Z,961.9
2019-02-25T16:33:42.348Z,961.9
2019-02-25T16:37:00.364Z,962
2019-02-25T16:40:11.869Z,961.9
2019-02-25T16:43:20.287Z,962
2019-02-25T16:46:26.358Z,962
2019-02-25T16:49:38.987Z,961.9
2019-02-25T16:52:50.124Z,962
2019-02-25T16:55:57.755Z,961.9
2019-02-25T16:59:17.838Z,961.9
2019-02-25T17:02:38.063Z,961.9
2019-02-25T17:05:51.801Z,961.9
2019-02-25T17:08:59.014Z,961.8
2019-02-25T17:12:09.544Z,961.9
2019-02-25T17:15:15.507Z,961.9
2019-02-25T17:18:21.617Z,961.8
2019-02-25T17:21:29.559Z,961.7
2019-02-25T17:24:39.821Z,961.7
2019-02-25T17:27:46.922Z,961.6
2019-02-25T17:30:54.012Z,961.7
2019-02-25T17:34:00.066Z,961.6
2019-02-25T17:37:12.578Z,961.6
2019-02-25T17:40:22.632Z,961.5
2019-02-25T17:43:31.618Z,961.5
2019-02-25T17:46:46.760Z,961.5
2019-02-25T17:49:52.910Z,961.4
2019-02-25T17:53:11.863Z,961.4
2019-02-25T17:56:25.081Z,961.4
2019-02-25T17:59:35.415Z,961.4
2019-02-25T18:02:43.567Z,961.3
2019-02-25T18:05:49.626Z,961.3
2019-02-25T18:08:59.887Z,961.3
2019-02-25T18:12:11.376Z,961.4
2019-02-25T18:15:17.741Z,961.3
2019-02-25T18:18:36.571Z,961.3
2019-02-25T18:22:00.075Z,961.3
2019-02-25T18:25:06.347Z,961.3
2019-02-25T18:28:17.783Z,961.3
2019-02-25T18:31:32.192Z,961.2
2019-02-25T18:34:39.900Z,961.2
2019-02-25T18:37:47.398Z,961.2
2019-02-25T18:40:55.141Z,961.1
2019-02-25T18:44:16.315Z,961
2019-02-25T18:47:27.896Z,961.1
2019-02-25T18:50:33.956Z,961.1
2019-02-25T18:53:42.272Z,961.1
2019-02-25T18:56:50.691Z,961.1
2019-02-25T19:00:05.766Z,961.1
2019-02-25T19:03:12.246Z,961.1
2019-02-25T19:06:25.455Z,961.1
2019-02-25T19:09:35.432Z,961.1
2019-02-25T19:12:56.315Z,961.1
2019-02-25T19:16:05.979Z,961.1
2019-02-25T19:19:20.643Z,961.1
2019-02-25T19:22:26.766Z,961
2019-02-25T19:25:43.944Z,961
2019-02-25T19:28:56.859Z,961
2019-02-25T19:32:04.551Z,961
2019-02-25T19:35:11.497Z,960.9
2019-02-25T19:38:19.158Z,960.9
2019-02-25T19:41:30.936Z,960.9
2019-02-25T19:44:39.303Z,961
2019-02-25T19:47:45.360Z,960.9
2019-02-25T19:50:56.109Z,960.9
2019-02-25T19:54:16.253Z,960.9
2019-02-25T19:57:30.781Z,960.9
2019-02-25T20:00:37.108Z,961
2019-02-25T20:03:47.836Z,961
2019-02-25T20:07:00.787Z,961.1
2019-02-25T20:10:06.958Z,961.1
2019-02-25T20:13:17.231Z,961.1
2019-02-25T20:16:32.918Z,961.1
2019-02-25T20:19:45.716Z,961.1
2019-02-25T20:22:57.267Z,961
2019-02-25T20:26:19.758Z,960.9
2019-02-25T20:29:31.144Z,960.9
2019-02-25T20:32:49.670Z,960.8
2019-02-25T20:36:01.103Z,960.8
2019-02-25T20:39:09.033Z,960.7
2019-02-25T20:42:23.975Z,960.7
2019-02-25T20:45:37.046Z,960.8
2019-02-25T20:48:51.285Z,960.7
2019-02-25T20:52:04.136Z,960.7
2019-02-25T20:55:14.040Z,960.8
2019-02-25T20:58:23.787Z,960.8
2019-02-25T21:01:29.895Z,960.7
2019-02-25T21:04:54.492Z,960.8
2019-02-25T21:08:05.418Z,960.7
2019-02-25T21:11:15.572Z,960.7
2019-02-25T21:14:21.741Z,960.7
2019-02-25T21:17:37.835Z,960.8
2019-02-25T21:20:51.333Z,960.7
2019-02-25T21:24:08.723Z,960.8
2019-02-25T21:27:18.717Z,960.8
2019-02-25T21:30:44.066Z,960.7
2019-02-25T21:34:00.892Z,960.7
2019-02-25T21:37:06.911Z,960.6
2019-02-25T21:40:13.170Z,960.6
2019-02-25T21:43:26.235Z,960.5
2019-02-25T21:46:37.384Z,960.5
2019-02-25T21:49:43.261Z,960.5
2019-02-25T21:52:49.200Z,960.4
2019-02-25T21:56:04.849Z,960.5
2019-02-25T21:59:14.954Z,960.5
2019-02-25T22:02:22.799Z,960.4
2019-02-25T22:05:28.802Z,960.5
2019-02-25T22:08:37.321Z,960.5
2019-02-25T22:11:43.204Z,960.5
2019-02-25T22:14:52.882Z,960.5
2019-02-25T22:17:58.802Z,960.4
2019-02-25T22:21:21.399Z,960.5
2019-02-25T22:24:34.309Z,960.5
2019-02-25T22:27:46.776Z,960.4
2019-02-25T22:30:54.784Z,960.5
2019-02-25T22:34:00.856Z,960.6
2019-02-25T22:37:22.530Z,960.5
2019-02-25T22:40:39.541Z,960.6
2019-02-25T22:43:48.997Z,960.5
2019-02-25T22:46:54.995Z,960.7
2019-02-25T22:50:00.874Z,960.6
2019-02-25T22:53:16.957Z,960.7
2019-02-25T22:56:28.693Z,960.7
2019-02-25T22:59:36.750Z,960.7
2019-02-25T23:02:49.782Z,960.7
2019-02-25T23:06:01.745Z,960.5
2019-02-25T23:09:18.851Z,960.5
2019-02-25T23:12:32.265Z,960.4
2019-02-25T23:15:38.159Z,960.4
2019-02-25T23:18:55.273Z,960.4
2019-02-25T23:22:01.275Z,960.5
2019-02-25T23:25:07.336Z,960.4
2019-02-25T23:28:13.247Z,960.5
2019-02-25T23:31:24.207Z,960.4
2019-02-25T23:34:42.446Z,960.4
2019-02-25T23:38:01.661Z,960.5
2019-02-25T23:41:12.152Z,960.3
2019-02-25T23:44:25.264Z,960.2
2019-02-25T23:47:39.898Z,960.3
2019-02-25T23:50:47.869Z,960.3
2019-02-25T23:54:03.239Z,960.2
2019-02-25T23:57:21.635Z,960.2
